This is the latest recevied weather packets stored in our database for station/object IA5KRO-13. If no packets are shown the sender has not sent any weather packets the latest 1 day(s).
| Time | Temp. | Humidity | Pressure | Rain* | Wind** | Luminosity | Snow |
|---|---|---|---|---|---|---|---|
| 1778031309 | 16.11° C | 96% | 1017.3 hPa | 1.02 mm | 2.24 m/s, 257° | - | - |
| 1778031023 | 16.11° C | 96% | 1017.3 hPa | 1.02 mm | 2.68 m/s, 306° | - | - |
| 1778030710 | 16.11° C | 96% | 1017.3 hPa | 1.02 mm | 1.79 m/s, 299° | - | - |
| 1778030413 | 16.11° C | 97% | 1017.6 hPa | 2.29 mm | 2.68 m/s, 285° | - | - |
| 1778030112 | 16.11° C | 97% | 1017.6 hPa | 3.3 mm | 3.58 m/s, 296° | - | - |
| 1778029813 | 16.11° C | 96% | 1018 hPa | 2.54 mm | 1.79 m/s, 241° | - | - |
| 1778029510 | 16.11° C | 95% | 1018 hPa | 2.29 mm | 5.36 m/s, 295° | - | - |
| 1778029233 | 16.11° C | 97% | 1018 hPa | 3.56 mm | 1.79 m/s, 239° | - | - |
| 1778028909 | 17.22° C | 97% | 1018 hPa | 3.3 mm | 1.79 m/s, 169° | - | - |
| 1778028613 | 17.22° C | 94% | 1018 hPa | 1.02 mm | 1.79 m/s, 259° | - | - |
| 1778028313 | 17.22° C | 93% | 1018 hPa | 0 mm | 1.34 m/s, 155° | - | - |
| 1778027709 | 17.22° C | 94% | 1018.3 hPa | 0.25 mm | 0.45 m/s, 118° | - | - |
| 1778027423 | 17.22° C | 92% | 1018.3 hPa | 0 mm | 4.02 m/s, 275° | - | - |
| 1778027110 | 17.22° C | 93% | 1018.3 hPa | 0 mm | 1.34 m/s, 229° | - | - |
| 1778026814 | 17.22° C | 94% | 1018.3 hPa | 0 mm | 1.34 m/s, 178° | - | - |
| 1778026513 | 17.22° C | 94% | 1018.3 hPa | 0 mm | 4.02 m/s, 270° | - | - |
| 1778026213 | 17.22° C | 94% | 1019 hPa | 0 mm | 0.45 m/s, 184° | - | - |
| 1778025910 | 17.22° C | 94% | 1019 hPa | 0 mm | 0.89 m/s, 120° | - | - |
| 1778025637 | 17.22° C | 94% | 1019 hPa | 0 mm | 0.45 m/s, 302° | - | - |
| 1778024713 | 17.22° C | 93% | 1018.3 hPa | 0 mm | 1.79 m/s, 315° | - | - |
| 1778024414 | 17.22° C | 93% | 1018.3 hPa | 0 mm | 2.68 m/s, 277° | - | - |
| 1778024109 | 17.22° C | 93% | 1018.3 hPa | 0 mm | 1.79 m/s, 263° | - | - |
| 1778023822 | 17.22° C | 93% | 1018.3 hPa | 0 mm | 0.89 m/s, 108° | - | - |
| 1778023509 | 17.22° C | 93% | 1019 hPa | 0 mm | 0.45 m/s, 346° | - | - |
| 1778023213 | 17.22° C | 92% | 1019 hPa | 0 mm | 0.45 m/s, 188° | - | - |
* Rain latest hour (hover to see other rain measurements)
** Current wind speed in m/s (hover to see current wind gust speed)